createdAt,value
2019-05-20T00:00:43.455Z,15.41
2019-05-20T00:03:15.154Z,15.38
2019-05-20T00:05:47.299Z,15.38
2019-05-20T00:08:18.494Z,15.40
2019-05-20T00:10:49.867Z,15.43
2019-05-20T00:13:21.576Z,15.42
2019-05-20T00:15:53.724Z,15.36
2019-05-20T00:18:25.241Z,15.34
2019-05-20T00:20:57.503Z,15.33
2019-05-20T00:23:29.343Z,15.29
2019-05-20T00:26:01.178Z,15.33
2019-05-20T00:28:33.237Z,15.27
2019-05-20T00:31:05.407Z,15.30
2019-05-20T00:33:37.233Z,15.26
2019-05-20T00:36:09.282Z,15.17
2019-05-20T00:38:40.986Z,15.12
2019-05-20T00:41:13.046Z,15.03
2019-05-20T00:43:44.654Z,15.03
2019-05-20T00:46:16.410Z,14.98
2019-05-20T00:48:48.396Z,14.95
2019-05-20T00:51:20.281Z,14.88
2019-05-20T00:53:52.248Z,14.85
2019-05-20T00:56:23.803Z,14.78
2019-05-20T00:58:55.801Z,14.76
2019-05-20T01:01:27.423Z,14.77
2019-05-20T01:03:59.616Z,14.72
2019-05-20T01:06:31.339Z,14.68
2019-05-20T01:09:04.805Z,14.64
2019-05-20T01:11:36.527Z,14.64
2019-05-20T01:14:09.012Z,14.64
2019-05-20T01:16:40.210Z,14.64
2019-05-20T01:19:11.931Z,14.61
2019-05-20T01:21:43.473Z,14.64
2019-05-20T01:24:15.514Z,14.66
2019-05-20T01:26:47.262Z,14.68
2019-05-20T01:29:19.285Z,14.65
2019-05-20T01:31:51.032Z,14.58
2019-05-20T01:34:23.038Z,14.61
2019-05-20T01:36:54.868Z,14.59
2019-05-20T01:39:26.841Z,14.56
2019-05-20T01:41:58.633Z,14.56
2019-05-20T01:44:30.677Z,14.60
2019-05-20T01:47:02.659Z,14.59
2019-05-20T01:49:34.653Z,14.60
2019-05-20T01:52:06.380Z,14.60
2019-05-20T01:54:38.523Z,14.60
2019-05-20T01:57:10.196Z,14.60
2019-05-20T01:59:41.957Z,14.59
2019-05-20T02:02:13.605Z,14.52
2019-05-20T02:04:45.666Z,14.54
2019-05-20T02:07:17.617Z,14.52
2019-05-20T02:09:49.651Z,14.55
2019-05-20T02:12:21.279Z,14.56
2019-05-20T02:15:06.382Z,14.57
2019-05-20T02:17:37.317Z,14.55
2019-05-20T02:20:09.141Z,14.53
2019-05-20T02:22:40.974Z,14.64
2019-05-20T02:25:12.777Z,14.81
2019-05-20T02:27:44.594Z,15.73
2019-05-20T02:30:16.644Z,15.73
2019-05-20T02:32:48.325Z,16.45
2019-05-20T02:35:20.236Z,16.98
2019-05-20T02:37:52.382Z,17.02
2019-05-20T02:40:24.373Z,17.29
2019-05-20T02:42:55.875Z,17.41
2019-05-20T02:45:27.934Z,17.84
2019-05-20T02:47:59.501Z,18.13
2019-05-20T02:50:31.440Z,18.36
2019-05-20T02:53:03.140Z,18.65
2019-05-20T02:55:34.857Z,18.92
2019-05-20T02:58:06.816Z,18.93
2019-05-20T03:00:38.588Z,19.24
2019-05-20T03:03:10.441Z,19.64
2019-05-20T03:05:42.229Z,20.52
2019-05-20T03:08:13.939Z,19.84
2019-05-20T03:10:46.262Z,20.16
2019-05-20T03:13:18.078Z,20.46
2019-05-20T03:15:49.991Z,20.60
2019-05-20T03:18:21.122Z,21.16
2019-05-20T03:20:52.579Z,21.34
2019-05-20T03:23:25.220Z,22.50
2019-05-20T03:25:57.547Z,21.38
2019-05-20T03:28:29.280Z,21.91
2019-05-20T03:31:01.049Z,22.56
2019-05-20T03:33:32.967Z,23.09
2019-05-20T03:36:04.637Z,21.66
2019-05-20T03:38:36.462Z,21.73
2019-05-20T03:41:08.385Z,21.93
2019-05-20T03:43:39.617Z,22.33
2019-05-20T03:46:11.092Z,22.83
2019-05-20T03:48:42.953Z,22.63
2019-05-20T03:51:14.769Z,24.00
2019-05-20T03:53:46.593Z,24.91
2019-05-20T03:56:18.345Z,23.45
2019-05-20T03:58:51.182Z,23.28
2019-05-20T04:01:22.714Z,24.56
2019-05-20T04:03:55.624Z,25.69
2019-05-20T04:06:27.433Z,26.40
2019-05-20T04:08:59.347Z,25.00
2019-05-20T04:11:30.877Z,25.50
2019-05-20T04:14:02.090Z,25.29
2019-05-20T04:16:33.516Z,27.58
2019-05-20T04:19:05.264Z,27.21
2019-05-20T04:21:37.187Z,27.15
2019-05-20T04:24:08.473Z,27.29
2019-05-20T04:26:40.131Z,28.06
2019-05-20T04:29:11.899Z,30.09
2019-05-20T04:31:43.517Z,29.40
2019-05-20T04:34:15.266Z,29.95
2019-05-20T04:36:47.230Z,30.13
2019-05-20T04:39:18.880Z,29.76
2019-05-20T04:41:50.509Z,30.22
2019-05-20T04:44:22.231Z,30.36
2019-05-20T04:46:53.946Z,29.64
2019-05-20T04:49:25.803Z,30.45
2019-05-20T04:51:57.687Z,30.09
2019-05-20T04:54:29.767Z,30.01
2019-05-20T04:57:02.620Z,32.00
2019-05-20T04:59:34.471Z,31.90
2019-05-20T05:02:07.305Z,33.12
2019-05-20T05:04:39.218Z,33.22
2019-05-20T05:07:11.079Z,33.35
2019-05-20T05:09:43.147Z,33.04
2019-05-20T05:12:14.696Z,33.61
2019-05-20T05:14:46.550Z,34.58
2019-05-20T05:17:18.349Z,32.62
2019-05-20T05:19:50.192Z,34.59
2019-05-20T05:22:21.797Z,34.32
2019-05-20T05:24:53.845Z,34.14
2019-05-20T05:27:25.652Z,34.69
2019-05-20T05:29:57.522Z,34.22
2019-05-20T05:32:41.694Z,33.79
2019-05-20T05:35:14.943Z,33.22
2019-05-20T05:37:46.624Z,32.94
2019-05-20T05:40:19.154Z,33.11
2019-05-20T05:42:50.980Z,33.10
2019-05-20T05:45:28.919Z,33.56
2019-05-20T05:47:59.273Z,34.20
2019-05-20T05:50:31.155Z,34.12
2019-05-20T05:53:02.863Z,30.86
2019-05-20T05:55:34.847Z,34.11
2019-05-20T05:58:08.724Z,34.68
2019-05-20T06:00:40.621Z,35.20
2019-05-20T06:03:13.346Z,37.41
2019-05-20T06:05:44.957Z,36.90
2019-05-20T06:08:16.846Z,37.58
2019-05-20T06:10:48.475Z,38.85
2019-05-20T06:13:20.206Z,38.82
2019-05-20T06:15:54.581Z,36.40
2019-05-20T06:18:25.706Z,36.04
2019-05-20T06:20:57.352Z,39.42
2019-05-20T06:23:29.171Z,39.76
2019-05-20T06:26:01.003Z,39.64
2019-05-20T06:28:32.654Z,39.91
2019-05-20T06:31:04.399Z,40.02
2019-05-20T06:33:36.458Z,38.98
2019-05-20T06:36:08.412Z,40.43
2019-05-20T06:38:44.381Z,36.84
2019-05-20T06:41:16.253Z,37.75
2019-05-20T06:43:47.887Z,40.52
2019-05-20T06:46:20.052Z,40.85
2019-05-20T06:48:51.821Z,37.37
2019-05-20T06:51:23.732Z,37.40
2019-05-20T06:53:55.613Z,37.15
2019-05-20T06:56:27.293Z,35.53
2019-05-20T06:59:00.386Z,34.50
2019-05-20T07:01:31.946Z,35.48
2019-05-20T07:04:04.026Z,37.07
2019-05-20T07:06:45.311Z,37.91
2019-05-20T07:09:09.062Z,36.42
2019-05-20T07:11:51.941Z,37.50
2019-05-20T07:14:14.337Z,35.57
2019-05-20T07:16:46.400Z,36.46
2019-05-20T07:19:18.131Z,36.33
2019-05-20T07:21:50.097Z,34.26
2019-05-20T07:24:21.903Z,35.20
2019-05-20T07:26:53.440Z,35.04
2019-05-20T07:29:25.625Z,35.20
2019-05-20T07:31:57.224Z,36.68
2019-05-20T07:34:29.081Z,34.56
2019-05-20T07:37:03.623Z,36.24
2019-05-20T07:39:34.196Z,36.77
2019-05-20T07:42:05.830Z,36.64
2019-05-20T07:44:37.669Z,36.22
2019-05-20T07:47:11.116Z,37.03
2019-05-20T07:49:43.597Z,35.78
2019-05-20T07:52:15.501Z,34.26
2019-05-20T07:54:48.455Z,32.60
2019-05-20T07:57:22.150Z,33.37
2019-05-20T07:59:55.585Z,34.60
2019-05-20T08:02:28.243Z,35.26
2019-05-20T08:04:59.997Z,34.02
2019-05-20T08:07:50.737Z,33.22
2019-05-20T08:10:07.304Z,34.71
2019-05-20T08:12:39.477Z,32.56
2019-05-20T08:15:11.803Z,32.61
2019-05-20T08:17:43.373Z,33.14
2019-05-20T08:20:15.618Z,31.77
2019-05-20T08:22:47.273Z,29.85
2019-05-20T08:25:19.291Z,28.03
2019-05-20T08:27:50.846Z,26.89
2019-05-20T08:30:34.464Z,26.69
2019-05-20T08:33:06.460Z,26.10
2019-05-20T08:35:38.176Z,25.90
2019-05-20T08:38:10.304Z,25.80
2019-05-20T08:40:42.757Z,25.72
2019-05-20T08:43:14.406Z,25.45
2019-05-20T08:45:47.138Z,25.51
2019-05-20T08:48:19.253Z,25.28
2019-05-20T08:50:51.009Z,25.10
2019-05-20T08:53:22.670Z,25.14
2019-05-20T08:55:54.380Z,25.02
2019-05-20T08:58:26.216Z,25.45
2019-05-20T09:00:57.934Z,25.53
2019-05-20T09:03:30.569Z,25.61
2019-05-20T09:06:02.563Z,25.27
2019-05-20T09:08:33.785Z,25.23
2019-05-20T09:11:05.514Z,25.05
2019-05-20T09:13:37.231Z,25.15
2019-05-20T09:16:08.853Z,24.96
2019-05-20T09:18:40.519Z,25.06
2019-05-20T09:21:12.451Z,25.31
2019-05-20T09:23:44.480Z,25.09
2019-05-20T09:26:15.986Z,25.27
2019-05-20T09:28:47.874Z,25.33
2019-05-20T09:31:19.845Z,25.49
2019-05-20T09:33:52.213Z,25.57
2019-05-20T09:36:25.937Z,25.34
2019-05-20T09:38:57.507Z,25.13
2019-05-20T09:41:28.459Z,25.33
2019-05-20T09:44:00.077Z,25.22
2019-05-20T09:46:31.831Z,25.08
2019-05-20T09:49:03.627Z,25.09
2019-05-20T09:51:35.163Z,25.26
2019-05-20T09:54:06.883Z,25.41
2019-05-20T09:56:38.444Z,25.56
2019-05-20T09:59:10.304Z,25.46
2019-05-20T10:01:42.149Z,25.40
2019-05-20T10:04:15.181Z,25.62
2019-05-20T10:06:46.811Z,25.47
2019-05-20T10:09:18.529Z,25.55
2019-05-20T10:11:50.338Z,25.50
2019-05-20T10:14:22.417Z,25.42
2019-05-20T10:16:53.946Z,25.45
2019-05-20T10:19:25.715Z,25.41
2019-05-20T10:21:57.234Z,25.29
2019-05-20T10:24:28.951Z,25.56
2019-05-20T10:27:02.655Z,25.78
2019-05-20T10:29:34.407Z,25.75
2019-05-20T10:32:06.214Z,25.75
2019-05-20T10:34:37.900Z,25.65
2019-05-20T10:37:09.245Z,25.50
2019-05-20T10:39:40.926Z,25.85
2019-05-20T10:42:12.596Z,25.82
2019-05-20T10:44:44.542Z,25.88
2019-05-20T10:47:16.028Z,25.71
2019-05-20T10:49:47.955Z,25.83
2019-05-20T10:52:20.507Z,25.73
2019-05-20T10:54:52.160Z,25.67
2019-05-20T10:57:23.820Z,25.76
2019-05-20T10:59:55.607Z,25.69
2019-05-20T11:02:31.165Z,25.90
2019-05-20T11:05:01.222Z,25.92
2019-05-20T11:07:32.895Z,25.97
2019-05-20T11:10:06.289Z,25.95
2019-05-20T11:12:37.811Z,26.02
2019-05-20T11:15:10.019Z,26.06
2019-05-20T11:17:40.880Z,26.22
2019-05-20T11:20:12.772Z,25.87
2019-05-20T11:22:43.611Z,25.73
2019-05-20T11:25:16.557Z,25.80
2019-05-20T11:27:47.401Z,25.86
2019-05-20T11:30:19.449Z,25.87
2019-05-20T11:32:51.578Z,26.08
2019-05-20T11:35:22.830Z,25.92
2019-05-20T11:37:54.087Z,25.79
2019-05-20T11:40:25.948Z,26.02
2019-05-20T11:42:57.456Z,25.95
2019-05-20T11:45:29.097Z,25.81
2019-05-20T11:48:01.018Z,25.95
2019-05-20T11:50:32.693Z,26.05
2019-05-20T11:53:04.871Z,25.87
2019-05-20T11:55:36.770Z,26.04
2019-05-20T11:58:15.777Z,26.12
2019-05-20T12:00:41.983Z,26.14
2019-05-20T12:03:13.869Z,26.19
2019-05-20T12:05:45.510Z,26.07
2019-05-20T12:08:17.390Z,26.03
2019-05-20T12:10:48.893Z,26.20
2019-05-20T12:13:20.636Z,26.29
2019-05-20T12:15:52.361Z,26.28
2019-05-20T12:18:23.430Z,26.29
2019-05-20T12:20:55.346Z,26.25
2019-05-20T12:23:26.489Z,26.24
2019-05-20T12:25:58.321Z,26.36
2019-05-20T12:28:29.874Z,26.39
2019-05-20T12:31:01.634Z,26.33
2019-05-20T12:33:33.303Z,26.46
2019-05-20T12:36:05.964Z,26.37
2019-05-20T12:38:37.345Z,26.52
2019-05-20T12:41:08.941Z,26.45
2019-05-20T12:43:44.260Z,26.46
2019-05-20T12:46:13.364Z,26.30
2019-05-20T12:48:44.927Z,26.34
2019-05-20T12:51:16.706Z,26.35
2019-05-20T12:53:48.681Z,26.49
2019-05-20T12:56:20.062Z,26.55
2019-05-20T12:58:51.484Z,26.56
2019-05-20T13:01:23.128Z,26.46
2019-05-20T13:03:55.280Z,26.31
2019-05-20T13:06:27.281Z,26.38
2019-05-20T13:08:59.041Z,26.51
2019-05-20T13:11:30.676Z,26.57
2019-05-20T13:14:02.438Z,26.48
2019-05-20T13:16:33.987Z,26.51
2019-05-20T13:19:06.098Z,26.53
2019-05-20T13:21:38.136Z,26.55
2019-05-20T13:24:09.879Z,26.65
2019-05-20T13:26:41.642Z,26.69
2019-05-20T13:29:13.531Z,26.63
2019-05-20T13:31:45.139Z,26.50
2019-05-20T13:34:18.502Z,26.53
2019-05-20T13:36:50.805Z,26.50
2019-05-20T13:39:22.400Z,26.42
2019-05-20T13:41:54.218Z,26.44
2019-05-20T13:44:26.130Z,26.44
2019-05-20T13:46:57.634Z,26.37
2019-05-20T13:49:29.346Z,26.37
2019-05-20T13:52:00.972Z,26.37
2019-05-20T13:54:32.911Z,26.34
2019-05-20T13:57:04.382Z,26.40
2019-05-20T13:59:36.051Z,26.37
2019-05-20T14:02:07.300Z,26.40
2019-05-20T14:04:39.899Z,26.41
2019-05-20T14:07:13.174Z,26.44
2019-05-20T14:09:44.851Z,26.42
2019-05-20T14:12:16.657Z,26.38
2019-05-20T14:14:48.444Z,26.36
2019-05-20T14:17:19.422Z,26.40
2019-05-20T14:19:51.045Z,26.40
2019-05-20T14:22:22.660Z,26.47
2019-05-20T14:24:54.460Z,26.36
2019-05-20T14:27:26.140Z,26.38
2019-05-20T14:29:58.304Z,26.38
2019-05-20T14:32:30.021Z,26.44
2019-05-20T14:35:01.909Z,26.43
2019-05-20T14:37:34.042Z,26.39
2019-05-20T14:40:07.205Z,26.32
2019-05-20T14:42:38.827Z,26.26
2019-05-20T14:45:10.885Z,26.21
2019-05-20T14:47:41.803Z,26.26
2019-05-20T14:50:13.736Z,26.21
2019-05-20T14:52:44.477Z,26.23
2019-05-20T14:55:16.096Z,26.15
2019-05-20T14:57:47.797Z,26.08
2019-05-20T15:00:22.347Z,26.10
2019-05-20T15:02:54.482Z,26.09
2019-05-20T15:05:26.346Z,26.03
2019-05-20T15:07:58.303Z,26.08
2019-05-20T15:10:29.161Z,26.10
2019-05-20T15:13:00.687Z,25.99
2019-05-20T15:15:32.470Z,26.00
2019-05-20T15:18:04.002Z,25.90
2019-05-20T15:20:34.975Z,25.92
2019-05-20T15:23:06.634Z,25.82
2019-05-20T15:25:38.648Z,25.83
2019-05-20T15:28:10.335Z,25.80
2019-05-20T15:30:42.016Z,25.73
2019-05-20T15:33:14.256Z,25.71
2019-05-20T15:35:46.207Z,25.70
2019-05-20T15:38:17.946Z,25.55
2019-05-20T15:40:49.513Z,25.51
2019-05-20T15:43:21.223Z,25.43
2019-05-20T15:45:52.845Z,25.35
2019-05-20T15:48:24.731Z,25.31
2019-05-20T15:50:56.234Z,25.22
2019-05-20T15:53:28.049Z,25.23
2019-05-20T15:55:59.647Z,25.19
2019-05-20T15:58:31.418Z,25.12
2019-05-20T16:01:02.962Z,25.06
2019-05-20T16:03:36.627Z,25.00
2019-05-20T16:06:08.951Z,24.91
2019-05-20T16:08:40.789Z,24.87
2019-05-20T16:11:12.362Z,24.79
2019-05-20T16:13:44.213Z,24.76
2019-05-20T16:16:15.855Z,24.70
2019-05-20T16:18:47.532Z,24.62
2019-05-20T16:21:19.119Z,24.57
2019-05-20T16:23:51.369Z,24.52
2019-05-20T16:26:23.333Z,24.47
2019-05-20T16:28:54.482Z,24.35
2019-05-20T16:31:26.068Z,24.24
2019-05-20T16:33:59.621Z,24.19
2019-05-20T16:36:31.569Z,24.07
2019-05-20T16:39:03.308Z,24.04
2019-05-20T16:41:35.277Z,23.96
2019-05-20T16:44:07.037Z,23.87
2019-05-20T16:46:39.853Z,23.78
2019-05-20T16:49:11.764Z,23.66
2019-05-20T16:51:43.765Z,23.61
2019-05-20T16:54:15.411Z,23.58
2019-05-20T16:56:47.424Z,23.45
2019-05-20T16:59:19.047Z,23.39
2019-05-20T17:01:50.711Z,23.29
2019-05-20T17:04:22.327Z,23.23
2019-05-20T17:06:55.220Z,23.15
2019-05-20T17:09:26.699Z,23.03
2019-05-20T17:11:58.465Z,22.94
2019-05-20T17:14:30.691Z,22.84
2019-05-20T17:17:02.478Z,22.70
2019-05-20T17:19:35.634Z,22.63
2019-05-20T17:22:07.672Z,22.52
2019-05-20T17:24:40.446Z,22.52
2019-05-20T17:27:11.994Z,22.41
2019-05-20T17:29:43.911Z,22.28
2019-05-20T17:32:16.082Z,22.16
2019-05-20T17:34:48.381Z,22.06
2019-05-20T17:37:20.012Z,21.96
2019-05-20T17:39:51.895Z,21.90
2019-05-20T17:42:23.405Z,21.88
2019-05-20T17:44:55.301Z,21.81
2019-05-20T17:47:26.930Z,21.74
2019-05-20T17:49:59.075Z,21.75
2019-05-20T17:52:30.897Z,21.63
2019-05-20T17:55:02.973Z,21.58
2019-05-20T17:57:35.347Z,21.54
2019-05-20T18:00:12.655Z,21.51
2019-05-20T18:02:45.294Z,21.49
2019-05-20T18:05:17.047Z,21.45
2019-05-20T18:07:49.736Z,21.38
2019-05-20T18:10:22.978Z,21.32
2019-05-20T18:12:54.943Z,20.96
2019-05-20T18:15:26.416Z,21.18
2019-05-20T18:17:58.317Z,21.16
2019-05-20T18:20:30.055Z,20.90
2019-05-20T18:23:02.180Z,21.04
2019-05-20T18:25:33.664Z,21.03
2019-05-20T18:28:05.504Z,21.00
2019-05-20T18:30:37.147Z,20.95
2019-05-20T18:33:09.122Z,20.87
2019-05-20T18:35:42.721Z,20.81
2019-05-20T18:38:14.830Z,20.69
2019-05-20T18:40:47.183Z,20.61
2019-05-20T18:43:19.038Z,20.57
2019-05-20T18:45:50.623Z,20.46
2019-05-20T18:48:22.776Z,20.39
2019-05-20T18:50:54.544Z,20.40
2019-05-20T18:53:26.471Z,20.35
2019-05-20T18:55:58.018Z,20.28
2019-05-20T18:58:29.920Z,20.31
2019-05-20T19:01:01.828Z,20.21
2019-05-20T19:03:34.111Z,20.15
2019-05-20T19:06:06.075Z,20.08
2019-05-20T19:08:37.611Z,20.02
2019-05-20T19:11:09.492Z,19.91
2019-05-20T19:13:42.584Z,19.87
2019-05-20T19:16:15.357Z,19.81
2019-05-20T19:18:47.011Z,19.81
2019-05-20T19:21:19.084Z,19.74
2019-05-20T19:23:50.874Z,19.68
2019-05-20T19:26:25.398Z,19.64
2019-05-20T19:28:56.236Z,19.58
2019-05-20T19:31:28.209Z,19.51
2019-05-20T19:34:00.109Z,19.52
2019-05-20T19:36:31.971Z,19.55
2019-05-20T19:39:04.860Z,19.38
2019-05-20T19:41:38.373Z,19.38
2019-05-20T19:44:13.202Z,19.34
2019-05-20T19:46:43.879Z,19.27
2019-05-20T19:49:15.773Z,19.34
2019-05-20T19:51:47.755Z,19.22
2019-05-20T19:54:19.317Z,19.12
2019-05-20T19:56:51.160Z,19.02
2019-05-20T19:59:22.686Z,18.93
2019-05-20T20:01:54.850Z,18.87
2019-05-20T20:04:26.585Z,18.76
2019-05-20T20:06:58.513Z,18.68
2019-05-20T20:09:30.349Z,18.67
2019-05-20T20:12:02.008Z,18.60
2019-05-20T20:14:34.076Z,18.56
2019-05-20T20:17:06.568Z,18.46
2019-05-20T20:19:37.619Z,18.41
2019-05-20T20:22:09.166Z,18.38
2019-05-20T20:24:41.212Z,18.36
2019-05-20T20:27:12.863Z,18.36
2019-05-20T20:29:44.632Z,18.28
2019-05-20T20:32:16.083Z,18.24
2019-05-20T20:34:48.030Z,18.22
2019-05-20T20:37:19.897Z,18.26
2019-05-20T20:39:51.854Z,18.22
2019-05-20T20:42:23.443Z,18.14
2019-05-20T20:44:55.318Z,18.09
2019-05-20T20:47:40.882Z,18.04
2019-05-20T20:50:01.462Z,18.04
2019-05-20T20:52:32.669Z,17.94
2019-05-20T20:55:05.682Z,17.93
2019-05-20T20:57:37.800Z,17.82
2019-05-20T21:00:09.454Z,17.76
2019-05-20T21:02:52.704Z,17.66
2019-05-20T21:05:14.461Z,17.64
2019-05-20T21:07:46.011Z,17.63
2019-05-20T21:10:18.404Z,17.58
2019-05-20T21:12:49.356Z,17.56
2019-05-20T21:15:20.981Z,17.51
2019-05-20T21:17:52.755Z,17.51
2019-05-20T21:20:24.851Z,17.45
2019-05-20T21:22:56.778Z,17.39
2019-05-20T21:25:28.775Z,17.38
2019-05-20T21:28:00.382Z,17.31
2019-05-20T21:30:32.125Z,17.29
2019-05-20T21:33:09.362Z,17.15
2019-05-20T21:35:37.509Z,17.11
2019-05-20T21:38:09.286Z,17.01
2019-05-20T21:40:41.110Z,16.94
2019-05-20T21:43:12.667Z,16.88
2019-05-20T21:45:44.666Z,16.80
2019-05-20T21:48:17.673Z,16.73
2019-05-20T21:50:49.473Z,16.70
2019-05-20T21:53:21.382Z,16.67
2019-05-20T21:55:52.944Z,16.66
2019-05-20T21:58:24.800Z,16.67
2019-05-20T22:00:56.822Z,16.59
2019-05-20T22:03:28.577Z,16.54
2019-05-20T22:06:00.361Z,16.54
2019-05-20T22:08:32.236Z,16.51
2019-05-20T22:11:04.303Z,16.50
2019-05-20T22:13:35.910Z,16.46
2019-05-20T22:16:07.871Z,16.47
2019-05-20T22:18:40.009Z,16.40
2019-05-20T22:21:12.785Z,16.30
2019-05-20T22:23:45.829Z,16.21
2019-05-20T22:26:17.365Z,16.24
2019-05-20T22:28:49.192Z,16.19
2019-05-20T22:31:20.674Z,16.14
2019-05-20T22:33:52.666Z,16.11
2019-05-20T22:36:24.315Z,16.02
2019-05-20T22:38:56.155Z,15.98
2019-05-20T22:41:27.911Z,15.98
2019-05-20T22:43:59.769Z,16.01
2019-05-20T22:46:31.549Z,15.97
2019-05-20T22:49:03.571Z,15.93
2019-05-20T22:51:35.557Z,15.88
2019-05-20T22:54:07.838Z,15.84
2019-05-20T22:56:39.581Z,15.82
2019-05-20T22:59:11.562Z,15.73
2019-05-20T23:01:43.201Z,15.70
2019-05-20T23:04:15.062Z,15.65
2019-05-20T23:06:46.666Z,15.64
2019-05-20T23:09:18.605Z,15.62
2019-05-20T23:11:50.335Z,15.57
2019-05-20T23:14:22.160Z,15.54
2019-05-20T23:16:53.958Z,15.51
2019-05-20T23:19:26.257Z,15.49
2019-05-20T23:21:57.405Z,15.42
2019-05-20T23:24:29.062Z,15.42
2019-05-20T23:27:00.985Z,15.41
2019-05-20T23:29:32.744Z,15.40
2019-05-20T23:32:04.424Z,15.37
2019-05-20T23:34:36.528Z,15.28
2019-05-20T23:37:08.227Z,15.28
2019-05-20T23:39:40.354Z,15.27
2019-05-20T23:42:11.946Z,15.22
2019-05-20T23:44:43.943Z,15.21
2019-05-20T23:47:15.768Z,15.15
2019-05-20T23:49:47.736Z,15.11
2019-05-20T23:52:19.700Z,15.06
2019-05-20T23:54:51.598Z,14.99
2019-05-20T23:57:23.324Z,14.99
2019-05-20T23:59:55.399Z,14.97
